Brora, United Kingdom
Current Conditions -  °F | °C
As of 2:50 PM on Friday 19 Dec 2014 (Local Time) from EGQK Reporting Station
Light Rain Light Rain  
Wind Chill: -3°   Ceiling: Unl
Heat Index:   Visibility: 6mi
Dew Point:   Wind: 25mph
Humidity: 87%   Direction: 240°WSW
Pressure: 29.47"   Gusts: 43mph
Location:  58.01°N, 3.85°W
Report Text: EGQK 191450Z AUTO 24022G37KT 9999 -RA SCT011/// SCT060/// 03/01 Q0998
Loading
Personal Weather Stations






























Interactive Weather Map New forecast layout! Learn more

10-Day Weather Forecast

Advertisements
Track Severe Weather on mobile